ADDS METAR Data INFO
IDs: Format: Raw Decoded Include TAF

Data at: 0635 UTC 15 Dec 2017

KMEV 150615Z AUTO 11004KT 10SM CLR M09/M12 A3040 RMK AO2
KMEV 150555Z AUTO 12005KT 10SM CLR M08/M11 A3040 RMK AO2
KMEV 150535Z AUTO 10003KT 10SM CLR M08/M11 A3040 RMK AO2
KMEV 150515Z AUTO 00000KT 10SM CLR M07/M10 A3040 RMK AO2
KMEV 150455Z AUTO 08003KT 10SM CLR M08/M11 A3041 RMK AO2
KMEV 150435Z AUTO 09004KT 10SM CLR M07/M11 A3041 RMK AO2
KMEV 150415Z AUTO 06003KT 10SM CLR M07/M11 A3041 RMK AO2
KMEV 150355Z AUTO 09004KT 10SM CLR M07/M11 A3041 RMK AO2
KMEV 150335Z AUTO 11006KT 10SM CLR M06/M11 A3040 RMK AO2
KMEV 150315Z AUTO 11005KT 10SM CLR M06/M11 A3040 RMK AO2
KMEV 150255Z AUTO 11006KT 10SM CLR M05/M11 A3040 RMK AO2
KMEV 150235Z AUTO 11009KT 10SM CLR M05/M11 A3040 RMK AO2
KMEV 150215Z AUTO 12006KT 10SM CLR M05/M12 A3040 RMK AO2
KMEV 150155Z AUTO 12005KT 10SM CLR M07/M13 A3040 RMK AO2
KMEV 150135Z AUTO 00000KT 10SM CLR M05/M12 A3039 RMK AO2
KMEV 150115Z AUTO 34003KT 10SM CLR M02/M11 A3038 RMK AO2
KMEV 150055Z AUTO 34005KT 10SM CLR 02/M10 A3037 RMK AO2
KMEV 150035Z AUTO 33003KT 10SM CLR 02/M10 A3036 RMK AO2
KMEV 150015Z AUTO 35005KT 10SM CLR 04/M09 A3036 RMK AO2
KMEV 142355Z AUTO 35003KT 10SM CLR 07/M10 A3036 RMK AO2
KMEV 142335Z AUTO 29003KT 10SM CLR 07/M10 A3036 RMK AO2
KMEV 142315Z AUTO 33003KT 10SM CLR 08/M10 A3036 RMK AO2
KMEV 142255Z AUTO 00000KT 10SM CLR 08/M10 A3037 RMK AO2
KMEV 142235Z AUTO 00000KT 10SM CLR 08/M10 A3037 RMK AO2
KMEV 142215Z AUTO 00000KT 10SM CLR 08/M10 A3037 RMK AO2
KMEV 142155Z AUTO 00000KT 10SM CLR 07/M10 A3037 RMK AO2
KMEV 142135Z AUTO 00000KT 10SM CLR 07/M10 A3038 RMK AO2
KMEV 142115Z AUTO 21003KT 10SM CLR 07/M09 A3039 RMK AO2
KMEV 142055Z AUTO 27003KT 10SM CLR 07/M09 A3039 RMK AO2
KMEV 142035Z AUTO 31004KT 10SM CLR 06/M09 A3040 RMK AO2
KMEV 142015Z AUTO 34004KT 10SM CLR 05/M09 A3041 RMK AO2
KMEV 141955Z AUTO 30003KT 10SM CLR 04/M09 A3042 RMK AO2
KMEV 141935Z AUTO 31004KT 10SM CLR 04/M09 A3042 RMK AO2
KMEV 141915Z AUTO 31003KT 10SM CLR 03/M09 A3043 RMK AO2
KMEV 141855Z AUTO 35003KT 10SM CLR 02/M10 A3044 RMK AO2
KMEV 141835Z AUTO 34003KT 10SM CLR 00/M10 A3044 RMK AO2
KMEV 141815Z AUTO 34003KT 10SM CLR M01/M09 A3045 RMK AO2
KMEV 141755Z AUTO 33003KT 10SM CLR M03/M08 A3045 RMK AO2
KMEV 141735Z AUTO 31003KT 10SM CLR M03/M08 A3046 RMK AO2
KMEV 141715Z AUTO 31003KT 10SM CLR M03/M08 A3046 RMK AO2
KMEV 141655Z AUTO 00000KT 10SM CLR M05/M09 A3046 RMK AO2
KMEV 141635Z AUTO 16003KT 10SM CLR M07/M09 A3046 RMK AO2
KMEV 141615Z AUTO 00000KT 10SM CLR M09/M12 A3046 RMK AO2
KMEV 141555Z AUTO 11003KT 8SM CLR M12/M14 A3046 RMK AO2
KMEV 141535Z AUTO 18005KT 10SM CLR M13/M15 A3045 RMK AO2
KMEV 141515Z AUTO 16003KT 10SM CLR M13/M15 A3044 RMK AO2
KMEV 141455Z AUTO 00000KT 10SM CLR M12/M14 A3044 RMK AO2
KMEV 141435Z AUTO 04005KT 10SM CLR M13/M15 A3043 RMK AO2
KMEV 141415Z AUTO 01003KT 10SM CLR M12/M14 A3042 RMK AO2
KMEV 141355Z AUTO 00000KT 10SM CLR M12/M14 A3042 RMK AO2
KMEV 141335Z AUTO 08003KT 10SM CLR M13/M14 A3042 RMK AO2
KMEV 141315Z AUTO 00000KT 10SM CLR M12/M15 A3042 RMK AO2
KMEV 141255Z AUTO 21003KT 10SM CLR M10/M13 A3042 RMK AO2
KMEV 141235Z AUTO 13003KT 10SM CLR M12/M14 A3042 RMK AO2
KMEV 141215Z AUTO 14004KT 10SM CLR M11/M13 A3042 RMK AO2
KMEV 141155Z AUTO 17003KT 10SM CLR M12/M14 A3042 RMK AO2
KMEV 141135Z AUTO 05004KT 10SM CLR M12/M14 A3041 RMK AO2
KMEV 141115Z AUTO 00000KT 10SM CLR M11/M14 A3041 RMK AO2
KMEV 141055Z AUTO 00000KT 10SM CLR M12/M14 A3042 RMK AO2
KMEV 141035Z AUTO 13003KT 10SM CLR M11/M13 A3041 RMK AO2
KMEV 141015Z AUTO 14004KT 10SM CLR M10/M13 A3041 RMK AO2
KMEV 140955Z AUTO 12005KT 10SM CLR M11/M13 A3041 RMK AO2
KMEV 140935Z AUTO 00000KT 10SM CLR M12/M14 A3041 RMK AO2
KMEV 140915Z AUTO 00000KT 10SM CLR M10/M13 A3041 RMK AO2
KMEV 140855Z AUTO 00000KT 10SM CLR M10/M13 A3040 RMK AO2
KMEV 140835Z AUTO 00000KT 10SM CLR M10/M13 A3040 RMK AO2
KMEV 140815Z AUTO 00000KT 10SM CLR M09/M12 A3040 RMK AO2
KMEV 140755Z AUTO 10004KT 10SM CLR M10/M13 A3040 RMK AO2
KMEV 140735Z AUTO 06004KT 10SM CLR M09/M12 A3040 RMK AO2
KMEV 140715Z AUTO 07003KT 10SM CLR M10/M13 A3040 RMK AO2
KMEV 140655Z AUTO 11005KT 10SM CLR M08/M12 A3040 RMK AO2
KMEV 140635Z AUTO 15005KT 10SM CLR M08/M12 A3039 RMK AO2
KMEV 140615Z AUTO 12007KT 10SM CLR M08/M12 A3039 RMK AO2
KMEV 140555Z AUTO 11006KT 10SM CLR M08/M12 A3038 RMK AO2
KMEV 140535Z AUTO 12004KT 10SM CLR M09/M12 A3038 RMK AO2
KMEV 140515Z AUTO 00000KT 10SM CLR M08/M12 A3037 RMK AO2
KMEV 140455Z AUTO 02003KT 10SM CLR M08/M12 A3036 RMK AO2
KMEV 140435Z AUTO 10006KT 10SM CLR M08/M12 A3035 RMK AO2
KMEV 140415Z AUTO 00000KT 10SM CLR M07/M12 A3035 RMK AO2
KMEV 140355Z AUTO 00000KT 10SM CLR M07/M11 A3033 RMK AO2
KMEV 140335Z AUTO 09005KT 10SM CLR M07/M11 A3033 RMK AO2
KMEV 140315Z AUTO 13007KT 10SM CLR M07/M12 A3032 RMK AO2
KMEV 140255Z AUTO 13007KT 10SM CLR M07/M12 A3031 RMK AO2
KMEV 140235Z AUTO 14008KT 10SM CLR M06/M12 A3031 RMK AO2
KMEV 140215Z AUTO 18003KT 10SM CLR M05/M12 A3031 RMK AO2
KMEV 140155Z AUTO 25004KT 10SM CLR M04/M12 A3030 RMK AO2
KMEV 140135Z AUTO 00000KT 10SM CLR M04/M13 A3029 RMK AO2
KMEV 140115Z AUTO 03006KT 10SM CLR M04/M13 A3028 RMK AO2
KMEV 140055Z AUTO 00000KT 10SM CLR M02/M13 A3027 RMK AO2
KMEV 140035Z AUTO 31003KT 10SM CLR 03/M10 A3026 RMK AO2
KMEV 140015Z AUTO 31003KT 10SM CLR 05/M12 A3026 RMK AO2
KMEV 132355Z AUTO 00000KT 10SM CLR 06/M12 A3026 RMK AO2
KMEV 132335Z AUTO 20003KT 10SM CLR 07/M12 A3025 RMK AO2
KMEV 132315Z AUTO 00000KT 10SM CLR 07/M12 A3026 RMK AO2
KMEV 132255Z AUTO 00000KT 10SM CLR 07/M12 A3026 RMK AO2
KMEV 132235Z AUTO 00000KT 10SM CLR 07/M13 A3027 RMK AO2
KMEV 132215Z AUTO 00000KT 10SM CLR 07/M12 A3027 RMK AO2
KMEV 132155Z AUTO 22003KT 10SM CLR 06/M12 A3028 RMK AO2
KMEV 132135Z AUTO 20004KT 10SM CLR 05/M12 A3029 RMK AO2
KMEV 132115Z AUTO 00000KT 10SM CLR 05/M12 A3030 RMK AO2
KMEV 132055Z AUTO 00000KT 10SM CLR 04/M10 A3031 RMK AO2
KMEV 132035Z AUTO 24003KT 10SM CLR 03/M09 A3032 RMK AO2
KMEV 132015Z AUTO 29003KT 10SM CLR 02/M10 A3033 RMK AO2
KMEV 131955Z AUTO 31003KT 10SM CLR 02/M10 A3034 RMK AO2
KMEV 131935Z AUTO 00000KT 10SM CLR 01/M09 A3035 RMK AO2
KMEV 131915Z AUTO 00000KT 10SM CLR 00/M08 A3036 RMK AO2
KMEV 131855Z AUTO 00000KT 10SM CLR 00/M08 A3037 RMK AO2